createdAt,value
2022-12-25T00:00:06.492Z,101166.44
2022-12-25T00:02:34.246Z,101177.50
2022-12-25T00:05:01.796Z,101164.34
2022-12-25T00:07:29.351Z,101159.94
2022-12-25T00:09:56.834Z,101167.59
2022-12-25T00:12:24.401Z,101167.16
2022-12-25T00:14:53.254Z,101166.19
2022-12-25T00:17:20.716Z,101170.94
2022-12-25T00:19:48.195Z,101165.56
2022-12-25T00:22:15.684Z,101163.66
2022-12-25T00:24:43.189Z,101154.88
2022-12-25T00:27:10.681Z,101151.03
2022-12-25T00:29:38.323Z,101157.56
2022-12-25T00:32:07.218Z,101149.28
2022-12-25T00:34:34.803Z,101151.78
2022-12-25T00:37:02.235Z,101159.25
2022-12-25T00:39:29.706Z,101152.13
2022-12-25T00:42:14.803Z,101156.16
2022-12-25T00:44:42.326Z,101158.13
2022-12-25T00:47:11.257Z,101163.47
2022-12-25T00:49:38.868Z,101168.53
2022-12-25T00:52:06.415Z,101164.19
2022-12-25T00:54:33.949Z,101157.06
2022-12-25T00:57:01.451Z,101158.53
2022-12-25T00:59:32.010Z,101167.97
2022-12-25T01:02:20.819Z,101163.75
2022-12-25T01:04:50.081Z,101167.16
2022-12-25T01:07:17.885Z,101167.97
2022-12-25T01:10:02.832Z,101161.97
2022-12-25T01:12:30.428Z,101164.72
2022-12-25T01:14:57.925Z,101172.66
2022-12-25T01:17:25.455Z,101174.28
2022-12-25T01:19:54.584Z,101170.06
2022-12-25T01:22:22.216Z,101170.06
2022-12-25T01:24:49.797Z,101179.94
2022-12-25T01:27:17.452Z,101179.28
2022-12-25T01:29:46.511Z,101186.25
2022-12-25T01:32:14.063Z,101173.47
2022-12-25T01:34:41.568Z,101177.19
2022-12-25T01:37:11.309Z,101176.66
2022-12-25T01:39:38.862Z,101175.56
2022-12-25T01:42:06.440Z,101160.94
2022-12-25T01:44:52.559Z,101165.47
2022-12-25T01:47:20.129Z,101159.59
2022-12-25T01:49:49.335Z,101164.16
2022-12-25T01:52:23.928Z,101163.38
2022-12-25T01:54:54.498Z,101152.16
2022-12-25T01:57:23.521Z,101160.41
2022-12-25T01:59:51.171Z,101174.88
2022-12-25T02:02:18.843Z,101169.97
2022-12-25T02:04:49.004Z,101168.53
2022-12-25T02:07:19.103Z,101172.59
2022-12-25T02:09:47.423Z,101186.25
2022-12-25T02:12:19.104Z,101181.88
2022-12-25T02:14:47.491Z,101183.66
2022-12-25T02:17:20.492Z,101175.56
2022-12-25T02:19:58.865Z,101175.69
2022-12-25T02:22:32.998Z,101169.69
2022-12-25T02:25:08.379Z,101163.00
2022-12-25T02:27:50.788Z,101160.41
2022-12-25T02:30:18.372Z,101162.38
2022-12-25T02:32:48.925Z,101157.66
2022-12-25T02:35:17.971Z,101150.00
2022-12-25T02:37:47.598Z,101152.47
2022-12-25T02:40:17.119Z,101167.09
2022-12-25T02:43:06.313Z,101158.31
2022-12-25T02:45:53.897Z,101138.44
2022-12-25T02:48:40.751Z,101145.03
2022-12-25T02:51:28.147Z,101142.88
2022-12-25T02:54:14.593Z,101141.38
2022-12-25T02:57:00.889Z,101132.00
2022-12-25T02:59:46.826Z,101134.59
2022-12-25T03:02:34.539Z,101129.69
2022-12-25T03:05:22.693Z,101124.81
2022-12-25T03:07:50.281Z,101122.84
2022-12-25T03:10:47.473Z,101119.63
2022-12-25T03:13:17.855Z,101115.56
2022-12-25T03:16:03.755Z,101110.53
2022-12-25T03:18:33.779Z,101105.66
2022-12-25T03:21:18.998Z,101112.50
2022-12-25T03:24:06.977Z,101111.53
2022-12-25T03:26:52.005Z,101117.53
2022-12-25T03:29:33.408Z,101119.19
2022-12-25T03:32:04.409Z,101119.19
2022-12-25T03:34:54.563Z,101122.16
2022-12-25T03:37:41.231Z,101117.13
2022-12-25T03:40:29.094Z,101125.16
2022-12-25T03:43:32.583Z,101126.25
2022-12-25T03:46:22.333Z,101117.66
2022-12-25T03:49:11.277Z,101119.75
2022-12-25T03:51:59.451Z,101111.81
2022-12-25T03:54:46.123Z,101110.03
2022-12-25T03:57:32.222Z,101106.50
2022-12-25T04:00:17.292Z,101076.31
2022-12-25T04:03:02.500Z,101113.50
2022-12-25T04:05:46.593Z,101099.19
2022-12-25T04:08:33.067Z,101107.81
2022-12-25T04:11:18.091Z,101100.25
2022-12-25T04:14:03.230Z,101096.13
2022-12-25T04:16:48.411Z,101100.25
2022-12-25T04:19:33.323Z,101104.63
2022-12-25T04:22:18.341Z,101101.72
2022-12-25T04:25:05.216Z,101110.31
2022-12-25T04:27:50.087Z,101109.19
2022-12-25T04:30:34.919Z,101114.25
2022-12-25T04:33:19.759Z,101106.44
2022-12-25T04:36:05.592Z,101097.50
2022-12-25T04:38:33.072Z,101105.47
2022-12-25T04:41:02.256Z,101107.75
2022-12-25T04:43:29.742Z,101098.84
2022-12-25T04:45:57.884Z,101087.75
2022-12-25T04:48:26.096Z,101102.88
2022-12-25T04:50:53.728Z,101106.28
2022-12-25T04:53:21.292Z,101094.75
2022-12-25T04:55:48.709Z,101082.72
2022-12-25T04:58:17.581Z,101092.97
2022-12-25T05:00:45.080Z,101092.28
2022-12-25T05:03:12.705Z,101092.09
2022-12-25T05:05:40.779Z,101085.63
2022-12-25T05:08:08.443Z,101078.63
2022-12-25T05:10:35.956Z,101038.31
2022-12-25T05:13:03.405Z,101072.09
2022-12-25T05:15:32.309Z,101077.25
2022-12-25T05:17:59.793Z,101080.00
2022-12-25T05:20:27.340Z,101070.72
2022-12-25T05:22:54.856Z,101063.91
2022-12-25T05:25:22.271Z,101068.31
2022-12-25T05:27:53.863Z,101060.31
2022-12-25T05:30:21.694Z,101058.38
2022-12-25T05:32:50.480Z,101051.69
2022-12-25T05:35:18.020Z,101053.16
2022-12-25T05:37:46.099Z,101054.41
2022-12-25T05:40:13.615Z,101066.44
2022-12-25T05:42:41.161Z,101054.28
2022-12-25T05:45:08.844Z,101058.13
2022-12-25T05:47:36.323Z,101053.59
2022-12-25T05:50:05.657Z,101042.38
2022-12-25T05:52:33.458Z,101042.53
2022-12-25T05:55:01.017Z,101053.44
2022-12-25T05:57:29.015Z,101052.78
2022-12-25T05:59:56.737Z,101055.38
2022-12-25T06:02:24.403Z,101049.38
2022-12-25T06:04:52.381Z,101047.75
2022-12-25T06:07:21.213Z,101046.09
2022-12-25T06:09:48.775Z,101035.56
2022-12-25T06:12:16.226Z,101020.78
2022-12-25T06:14:43.708Z,101026.59
2022-12-25T06:17:11.207Z,101024.34
2022-12-25T06:19:38.839Z,101017.00
2022-12-25T06:22:06.259Z,101023.00
2022-12-25T06:24:35.183Z,101022.19
2022-12-25T06:27:02.660Z,101024.16
2022-12-25T06:29:30.145Z,101023.88
2022-12-25T06:31:58.867Z,101025.81
2022-12-25T06:34:27.124Z,101030.72
2022-12-25T06:36:54.606Z,101020.47
2022-12-25T06:39:22.548Z,101025.16
2022-12-25T06:41:51.349Z,101033.63
2022-12-25T06:44:18.819Z,101021.59
2022-12-25T06:46:46.269Z,101013.94
2022-12-25T06:49:13.729Z,101019.66
2022-12-25T06:51:41.165Z,101020.31
2022-12-25T06:54:09.803Z,101013.78
2022-12-25T06:56:37.545Z,101006.94
2022-12-25T06:59:07.246Z,101010.72
2022-12-25T07:01:36.351Z,101008.75
2022-12-25T07:04:04.865Z,101003.88
2022-12-25T07:06:32.612Z,101008.28
2022-12-25T07:09:00.378Z,100997.88
2022-12-25T07:11:27.919Z,100997.53
2022-12-25T07:13:55.430Z,101000.81
2022-12-25T07:16:24.532Z,101006.97
2022-12-25T07:18:52.193Z,100998.84
2022-12-25T07:21:20.485Z,101001.97
2022-12-25T07:23:48.791Z,101001.81
2022-12-25T07:26:17.254Z,101013.50
2022-12-25T07:28:44.988Z,101015.13
2022-12-25T07:31:13.554Z,101002.13
2022-12-25T07:33:42.831Z,101009.28
2022-12-25T07:36:12.921Z,101012.59
2022-12-25T07:38:40.701Z,101012.53
2022-12-25T07:41:08.782Z,101002.13
2022-12-25T07:43:36.305Z,101012.88
2022-12-25T07:46:03.955Z,101024.72
2022-12-25T07:48:31.512Z,101028.13
2022-12-25T07:51:01.211Z,101038.69
2022-12-25T07:53:29.124Z,101031.09
2022-12-25T07:56:00.864Z,101030.75
2022-12-25T07:58:28.750Z,101020.69
2022-12-25T08:00:56.308Z,101019.88
2022-12-25T08:03:24.002Z,101010.09
2022-12-25T08:05:51.681Z,101014.47
2022-12-25T08:08:20.546Z,101015.78
2022-12-25T08:10:48.536Z,101026.84
2022-12-25T08:13:15.976Z,101040.66
2022-12-25T08:15:43.562Z,101049.91
2022-12-25T08:18:11.059Z,101044.41
2022-12-25T08:20:38.639Z,101046.34
2022-12-25T08:23:06.131Z,101047.50
2022-12-25T08:25:34.964Z,101044.09
2022-12-25T08:28:02.478Z,101035.28
2022-12-25T08:30:30.046Z,101035.47
2022-12-25T08:32:57.584Z,101035.63
2022-12-25T08:35:26.104Z,101022.47
2022-12-25T08:37:53.567Z,101036.19
2022-12-25T08:40:21.096Z,101037.66
2022-12-25T08:42:49.997Z,101030.16
2022-12-25T08:45:17.592Z,101020.72
2022-12-25T08:47:45.085Z,101018.47
2022-12-25T08:50:12.559Z,101012.97
2022-12-25T08:52:40.093Z,101015.72
2022-12-25T08:55:08.299Z,101013.94
2022-12-25T08:57:35.850Z,101015.88
2022-12-25T09:00:05.113Z,101015.56
2022-12-25T09:02:33.026Z,101024.03
2022-12-25T09:05:00.583Z,101014.59
2022-12-25T09:07:28.075Z,101025.81
2022-12-25T09:09:55.499Z,101018.63
2022-12-25T09:12:23.009Z,101021.25
2022-12-25T09:14:50.530Z,101027.09
2022-12-25T09:17:19.572Z,101034.59
2022-12-25T09:19:47.053Z,101036.22
2022-12-25T09:22:14.451Z,101035.88
2022-12-25T09:24:43.661Z,101041.75
2022-12-25T09:27:11.196Z,101034.09
2022-12-25T09:29:39.060Z,101036.84
2022-12-25T09:32:07.104Z,101047.25
2022-12-25T09:34:36.116Z,101052.00
2022-12-25T09:37:03.687Z,101050.38
2022-12-25T09:39:31.221Z,101050.38
2022-12-25T09:42:01.504Z,101046.94
2022-12-25T09:44:30.729Z,101031.19
2022-12-25T09:47:00.727Z,101037.50
2022-12-25T09:49:33.312Z,101031.19
2022-12-25T09:52:04.043Z,101029.72
2022-12-25T09:54:37.925Z,101028.22
2022-12-25T09:57:05.880Z,101017.81
2022-12-25T09:59:33.388Z,101019.28
2022-12-25T10:02:23.803Z,101026.94
2022-12-25T10:05:03.262Z,101022.72
2022-12-25T10:07:37.140Z,101019.28
2022-12-25T10:10:13.876Z,101022.56
2022-12-25T10:12:49.196Z,101022.41
2022-12-25T10:15:27.096Z,101015.41
2022-12-25T10:18:01.678Z,101015.72
2022-12-25T10:20:38.129Z,101022.56
2022-12-25T10:23:11.064Z,101007.25
2022-12-25T10:25:39.864Z,101016.22
2022-12-25T10:28:12.777Z,101017.19
2022-12-25T10:30:42.142Z,101004.53
2022-12-25T10:33:13.559Z,101001.59
2022-12-25T10:35:44.399Z,100988.25
2022-12-25T10:38:14.504Z,100988.56
2022-12-25T10:40:47.077Z,100985.50
2022-12-25T10:43:17.731Z,100972.31
2022-12-25T10:45:46.097Z,100964.34
2022-12-25T10:48:18.060Z,100975.56
2022-12-25T10:50:45.595Z,100958.66
2022-12-25T10:53:19.219Z,100947.75
2022-12-25T10:55:54.775Z,100948.72
2022-12-25T10:58:22.341Z,100900.75
2022-12-25T11:00:53.157Z,100927.09
2022-12-25T11:03:22.489Z,100927.09
2022-12-25T11:05:51.231Z,100937.50
2022-12-25T11:08:22.201Z,100943.03
2022-12-25T11:10:54.177Z,100928.72
2022-12-25T11:13:24.358Z,100899.75
2022-12-25T11:15:53.040Z,100920.91
2022-12-25T11:18:21.985Z,100909.00
2022-12-25T11:20:50.260Z,100915.19
2022-12-25T11:23:20.562Z,100916.81
2022-12-25T11:25:55.633Z,100901.22
2022-12-25T11:28:23.171Z,100893.88
2022-12-25T11:30:53.232Z,100886.72
2022-12-25T11:33:21.765Z,100881.81
2022-12-25T11:35:53.019Z,100859.03
2022-12-25T11:38:21.883Z,100862.28
2022-12-25T11:40:50.977Z,100859.66
2022-12-25T11:43:21.592Z,100852.88
2022-12-25T11:45:52.103Z,100851.59
2022-12-25T11:48:22.584Z,100854.84
2022-12-25T11:50:52.659Z,100858.25
2022-12-25T11:53:23.252Z,100856.47
2022-12-25T11:55:55.326Z,100858.91
2022-12-25T11:58:25.590Z,100861.50
2022-12-25T12:00:54.721Z,100845.91
2022-12-25T12:03:25.356Z,100858.72
2022-12-25T12:05:54.309Z,100858.09
2022-12-25T12:08:21.791Z,100855.50
2022-12-25T12:11:15.764Z,100853.72
2022-12-25T12:13:50.908Z,100847.84
2022-12-25T12:16:18.456Z,100842.84
2022-12-25T12:18:50.386Z,100841.53
2022-12-25T12:21:22.088Z,100829.47
2022-12-25T12:23:51.380Z,100827.84
2022-12-25T12:26:21.451Z,100822.31
2022-12-25T12:28:50.331Z,100809.31
2022-12-25T12:31:18.214Z,100806.69
2022-12-25T12:33:51.562Z,100801.03
2022-12-25T12:36:34.447Z,100809.63
2022-12-25T12:39:02.929Z,100814.50
2022-12-25T12:41:43.196Z,100818.06
2022-12-25T12:44:12.237Z,100819.00
2022-12-25T12:46:40.277Z,100814.78
2022-12-25T12:49:10.126Z,100822.91
2022-12-25T12:51:38.600Z,100822.31
2022-12-25T12:54:07.992Z,100815.63
2022-12-25T12:56:35.537Z,100816.41
2022-12-25T12:59:04.433Z,100817.59
2022-12-25T13:01:45.571Z,100810.44
2022-12-25T13:04:23.851Z,100801.81
2022-12-25T13:06:55.559Z,100781.34
2022-12-25T13:09:30.614Z,100781.81
2022-12-25T13:11:58.338Z,100776.13
2022-12-25T13:14:27.214Z,100775.81
2022-12-25T13:16:55.335Z,100766.53
2022-12-25T13:19:23.613Z,100763.13
2022-12-25T13:21:53.191Z,100758.41
2022-12-25T13:24:21.630Z,100756.94
2022-12-25T13:26:49.033Z,100756.00
2022-12-25T13:29:33.864Z,100761.84
2022-12-25T13:32:02.943Z,100756.81
2022-12-25T13:34:32.218Z,100754.84
2022-12-25T13:37:00.266Z,100756.31
2022-12-25T13:39:27.846Z,100755.34
2022-12-25T13:42:09.861Z,100753.06
2022-12-25T13:44:47.379Z,100751.59
2022-12-25T13:47:16.887Z,100754.38
2022-12-25T13:49:44.341Z,100767.38
2022-12-25T13:52:12.014Z,100776.50
2022-12-25T13:54:39.517Z,100770.97
2022-12-25T13:57:12.318Z,100767.88
2022-12-25T13:59:39.801Z,100769.50
2022-12-25T14:02:19.021Z,100776.31
2022-12-25T14:04:46.747Z,100751.56
2022-12-25T14:07:19.484Z,100758.28
2022-12-25T14:09:48.012Z,100752.38
2022-12-25T14:12:19.235Z,100746.88
2022-12-25T14:14:47.432Z,100753.88
2022-12-25T14:17:16.408Z,100753.88
2022-12-25T14:19:43.879Z,100759.22
2022-12-25T14:22:12.342Z,100761.66
2022-12-25T14:24:41.167Z,100746.38
2022-12-25T14:27:18.083Z,100745.88
2022-12-25T14:29:46.830Z,100746.16
2022-12-25T14:32:17.719Z,100743.22
2022-12-25T14:34:47.234Z,100746.03
2022-12-25T14:37:16.994Z,100744.25
2022-12-25T14:39:47.097Z,100722.28
2022-12-25T14:42:19.682Z,100718.72
2022-12-25T14:44:57.155Z,100715.28
2022-12-25T14:47:25.950Z,100719.84
2022-12-25T14:49:54.519Z,100715.63
2022-12-25T14:52:23.474Z,100719.53
2022-12-25T14:54:52.040Z,100717.34
2022-12-25T14:57:23.234Z,100711.28
2022-12-25T14:59:55.896Z,100719.53
2022-12-25T15:02:23.604Z,100720.50
2022-12-25T15:04:53.432Z,100726.19
2022-12-25T15:07:27.509Z,100728.81
2022-12-25T15:10:18.581Z,100728.69
2022-12-25T15:12:42.426Z,100725.00
2022-12-25T15:15:10.396Z,100727.44
2022-12-25T15:17:38.138Z,100725.81
2022-12-25T15:20:08.823Z,100726.94
2022-12-25T15:23:02.505Z,100726.38
2022-12-25T15:25:23.755Z,100725.22
2022-12-25T15:27:51.186Z,100732.19
2022-12-25T15:30:18.750Z,100728.47
2022-12-25T15:32:46.306Z,100724.25
2022-12-25T15:35:17.246Z,100732.06
2022-12-25T15:37:44.745Z,100722.13
2022-12-25T15:40:13.502Z,100715.94
2022-12-25T15:42:41.491Z,100720.50
2022-12-25T15:45:18.211Z,100713.94
2022-12-25T15:47:45.675Z,100705.03
2022-12-25T15:50:13.184Z,100702.91
2022-12-25T15:52:42.187Z,100700.50
2022-12-25T15:55:10.395Z,100696.59
2022-12-25T15:57:38.765Z,100704.53
2022-12-25T16:00:06.969Z,100711.34
2022-12-25T16:02:34.679Z,100712.00
2022-12-25T16:05:08.515Z,100711.66
2022-12-25T16:07:37.744Z,100709.28
2022-12-25T16:10:07.620Z,100708.03
2022-12-25T16:12:35.095Z,100705.75
2022-12-25T16:15:02.597Z,100711.84
2022-12-25T16:17:30.107Z,100705.75
2022-12-25T16:19:57.640Z,100714.28
2022-12-25T16:22:26.556Z,100659.19
2022-12-25T16:24:54.906Z,100695.44
2022-12-25T16:27:23.942Z,100696.91
2022-12-25T16:29:51.423Z,100693.50
2022-12-25T16:32:18.837Z,100696.25
2022-12-25T16:34:46.283Z,100683.69
2022-12-25T16:37:13.792Z,100679.84
2022-12-25T16:39:41.273Z,100674.63
2022-12-25T16:42:09.017Z,100681.06
2022-12-25T16:44:38.229Z,100677.78
2022-12-25T16:47:05.747Z,100683.78
2022-12-25T16:49:33.176Z,100674.19
2022-12-25T16:52:00.697Z,100670.47
2022-12-25T16:54:28.267Z,100673.00
2022-12-25T16:56:55.816Z,100677.88
2022-12-25T16:59:23.290Z,100668.91
2022-12-25T17:01:52.239Z,100670.06
2022-12-25T17:04:19.725Z,100666.53
2022-12-25T17:06:47.228Z,100661.97
2022-12-25T17:09:14.765Z,100671.59
2022-12-25T17:11:42.275Z,100672.47
2022-12-25T17:14:11.397Z,100681.47
2022-12-25T17:16:39.913Z,100683.03
2022-12-25T17:19:13.492Z,100682.59
2022-12-25T17:21:40.929Z,100680.94
2022-12-25T17:24:08.535Z,100676.97
2022-12-25T17:26:36.236Z,100682.44
2022-12-25T17:29:03.824Z,100674.31
2022-12-25T17:31:31.511Z,100675.28
2022-12-25T17:34:00.845Z,100678.84
2022-12-25T17:36:29.972Z,100674.63
2022-12-25T17:38:57.712Z,100675.00
2022-12-25T17:41:25.237Z,100675.34
2022-12-25T17:43:52.774Z,100671.72
2022-12-25T17:46:20.995Z,100679.03
2022-12-25T17:48:49.964Z,100671.09
2022-12-25T17:51:18.714Z,100680.00
2022-12-25T17:53:48.409Z,100677.78
2022-12-25T17:56:16.368Z,100676.59
2022-12-25T17:58:43.850Z,100681.75
2022-12-25T18:01:12.421Z,100676.69
2022-12-25T18:03:40.028Z,100674.25
2022-12-25T18:06:08.568Z,100664.94
2022-12-25T18:08:39.611Z,100658.72
2022-12-25T18:11:10.074Z,100651.53
2022-12-25T18:13:38.209Z,100654.75
2022-12-25T18:16:06.915Z,100650.09
2022-12-25T18:18:34.694Z,100644.34
2022-12-25T18:21:02.818Z,100635.84
2022-12-25T18:23:30.462Z,100634.72
2022-12-25T18:26:01.651Z,100633.69
2022-12-25T18:28:30.730Z,100630.38
2022-12-25T18:30:58.253Z,100652.56
2022-12-25T18:33:25.981Z,100653.66
2022-12-25T18:35:57.859Z,100659.19
2022-12-25T18:38:25.385Z,100655.75
2022-12-25T18:40:52.963Z,100665.69
2022-12-25T18:43:21.424Z,100676.38
2022-12-25T18:46:11.329Z,100679.19
2022-12-25T18:48:39.046Z,100683.91
2022-12-25T18:51:07.869Z,100687.28
2022-12-25T18:53:36.088Z,100670.22
2022-12-25T18:56:05.518Z,100677.22
2022-12-25T18:58:33.047Z,100676.50
2022-12-25T19:01:00.605Z,100667.75
2022-12-25T19:03:29.943Z,100666.44
2022-12-25T19:05:57.407Z,100664.47
2022-12-25T19:08:24.821Z,100663.84
2022-12-25T19:10:52.287Z,100666.13
2022-12-25T19:13:19.760Z,100662.38
2022-12-25T19:15:47.245Z,100658.31
2022-12-25T19:18:14.683Z,100653.09
2022-12-25T19:20:43.506Z,100657.22
2022-12-25T19:23:11.038Z,100649.69
2022-12-25T19:25:39.702Z,100647.25
2022-12-25T19:28:07.171Z,100648.44
2022-12-25T19:30:34.620Z,100659.00
2022-12-25T19:33:02.157Z,100651.31
2022-12-25T19:35:29.591Z,100654.44
2022-12-25T19:37:58.432Z,100627.91
2022-12-25T19:40:26.387Z,100657.22
2022-12-25T19:42:53.869Z,100659.66
2022-12-25T19:45:21.519Z,100662.97
2022-12-25T19:47:49.009Z,100665.09
2022-12-25T19:50:16.462Z,100666.72
2022-12-25T19:52:44.453Z,100671.91
2022-12-25T19:55:13.297Z,100667.81
2022-12-25T19:57:41.492Z,100675.59
2022-12-25T20:00:09.397Z,100678.69
2022-12-25T20:02:36.946Z,100672.41
2022-12-25T20:05:04.598Z,100671.97
2022-12-25T20:07:31.996Z,100666.84
2022-12-25T20:09:59.530Z,100656.59
2022-12-25T20:12:28.345Z,100669.41
2022-12-25T20:14:56.160Z,100674.56
2022-12-25T20:17:23.635Z,100683.09
2022-12-25T20:19:51.147Z,100673.97
2022-12-25T20:22:18.715Z,100672.19
2022-12-25T20:24:47.723Z,100671.38
2022-12-25T20:27:15.165Z,100676.88
2022-12-25T20:29:44.035Z,100683.19
2022-12-25T20:32:11.510Z,100678.47
2022-12-25T20:34:38.995Z,100673.13
2022-12-25T20:37:06.463Z,100676.25
2022-12-25T20:39:33.864Z,100672.84
2022-12-25T20:42:01.383Z,100668.50
2022-12-25T20:44:28.937Z,100673.28
2022-12-25T20:47:00.934Z,100679.19
2022-12-25T20:49:32.357Z,100675.72
2022-12-25T20:52:04.860Z,100668.06
2022-12-25T20:54:33.188Z,100673.44
2022-12-25T20:57:00.658Z,100678.69
2022-12-25T20:59:33.497Z,100680.47
2022-12-25T21:02:06.014Z,100676.03
2022-12-25T21:04:33.661Z,100682.06
2022-12-25T21:07:02.455Z,100681.75
2022-12-25T21:09:29.917Z,100687.59
2022-12-25T21:11:57.354Z,100694.75
2022-12-25T21:14:26.086Z,100691.94
2022-12-25T21:16:53.673Z,100694.09
2022-12-25T21:19:22.538Z,100699.84
2022-12-25T21:21:50.402Z,100701.41
2022-12-25T21:24:17.881Z,100695.91
2022-12-25T21:26:48.159Z,100693.19
2022-12-25T21:29:16.059Z,100712.06
2022-12-25T21:32:00.045Z,100702.28
2022-12-25T21:34:30.410Z,100704.22
2022-12-25T21:36:57.908Z,100715.75
2022-12-25T21:39:25.402Z,100716.28
2022-12-25T21:41:53.409Z,100716.09
2022-12-25T21:44:20.896Z,100718.00
2022-12-25T21:46:48.470Z,100724.25
2022-12-25T21:49:36.329Z,100725.72
2022-12-25T21:52:07.281Z,100717.69
2022-12-25T21:54:35.082Z,100701.16
2022-12-25T21:57:03.056Z,100704.06
2022-12-25T21:59:30.592Z,100708.16
2022-12-25T22:01:59.254Z,100709.56
2022-12-25T22:04:26.899Z,100706.50
2022-12-25T22:07:11.937Z,100714.28
2022-12-25T22:09:40.896Z,100709.91
2022-12-25T22:12:31.948Z,100701.47
2022-12-25T22:15:06.166Z,100704.19
2022-12-25T22:17:52.314Z,100700.13
2022-12-25T22:20:21.419Z,100694.09
2022-12-25T22:22:49.015Z,100693.28
2022-12-25T22:25:18.038Z,100694.75
2022-12-25T22:27:46.021Z,100708.59
2022-12-25T22:30:14.702Z,100714.78
2022-12-25T22:32:42.235Z,100706.50
2022-12-25T22:35:10.160Z,100709.28
2022-12-25T22:37:37.634Z,100652.63
2022-12-25T22:40:05.955Z,100683.38
2022-12-25T22:42:35.060Z,100680.47
2022-12-25T22:45:02.745Z,100660.47
2022-12-25T22:47:30.199Z,100648.63
2022-12-25T22:49:57.769Z,100673.25
2022-12-25T22:52:25.221Z,100670.69
2022-12-25T22:54:52.776Z,100670.22
2022-12-25T22:57:20.270Z,100674.81
2022-12-25T22:59:49.113Z,100678.22
2022-12-25T23:02:16.702Z,100684.88
2022-12-25T23:04:44.582Z,100676.16
2022-12-25T23:07:14.266Z,100673.53
2022-12-25T23:09:41.969Z,100685.75
2022-12-25T23:12:29.616Z,100688.81
2022-12-25T23:14:57.988Z,100690.63
2022-12-25T23:17:42.880Z,100676.00
2022-12-25T23:20:28.836Z,100669.31
2022-12-25T23:23:13.634Z,100660.06
2022-12-25T23:25:58.476Z,100654.84
2022-12-25T23:28:39.833Z,100648.66
2022-12-25T23:31:09.329Z,100656.25
2022-12-25T23:33:36.791Z,100659.34
2022-12-25T23:36:04.489Z,100656.75
2022-12-25T23:38:32.023Z,100655.75
2022-12-25T23:40:59.451Z,100639.78
2022-12-25T23:43:26.900Z,100667.97
2022-12-25T23:45:54.469Z,100676.09
2022-12-25T23:48:23.380Z,100669.44
2022-12-25T23:50:50.813Z,100680.00
2022-12-25T23:53:18.353Z,100675.28
2022-12-25T23:55:51.544Z,100676.25
2022-12-25T23:58:22.723Z,100678.41
